Terminal Aerodrome Forecast
Issued by NWS

Home | Current Version | Previous Version | Text Only | Print | Product List | Glossary Off
Versions: 1 2 3 4 5 6 7 8 9 10 11 12 13 14 15 16 17

000
FTUS43 KTOP 241100
TAFFOE
TAF
KFOE 241128Z 2412/2512 30008KT P6SM SKC
     FM241600 27011KT P6SM FEW200
     FM242000 24015G23KT P6SM BKN120
     FM250400 28016G25KT P6SM BKN050=

USA.gov is the U.S. government's official web portal to all federal, state and local government web resources and services.